Dumont, Colorado
Current Conditions -  °F | °C
As of 8:50 AM on Friday 24 Oct 2014 (Local Time) from K0CO Reporting Station
Clear Clear  
Wind Chill: 22°   Ceiling: Unl
Heat Index: 34°   Visibility: 10mi
Dew Point: 32°   Wind: 23mph
Humidity: 93%   Direction: 270°W
Pressure: 30.62"   Gusts: 30mph
Location:  39.76°N, 105.6°W
Report Text: K0CO 241450Z AUTO 27020G26KT 10SM CLR 01/00 A3062 RMK AO2
Loading
Personal Weather Stations






























Interactive Weather Map
Tropical Storm Tracking
New forecast layout! Learn more

10-Day Weather Forecast

Advertisements
Track Severe Weather on mobile